sensor_id;sensor_type;location;lat;lon;timestamp;P1;durP1;ratioP1;P2;durP2;ratioP2
50681;SDS011;36779;52.168;20.878;2023-09-18T00:01:00;5.00;;;3.40;;
50681;SDS011;36779;52.168;20.878;2023-09-18T00:03:40;6.20;;;3.50;;
50681;SDS011;36779;52.168;20.878;2023-09-18T00:06:13;5.70;;;3.60;;
50681;SDS011;36779;52.168;20.878;2023-09-18T00:08:47;5.80;;;3.70;;
50681;SDS011;36779;52.168;20.878;2023-09-18T00:11:21;5.70;;;3.60;;
50681;SDS011;36779;52.168;20.878;2023-09-18T00:13:53;3.50;;;3.00;;
50681;SDS011;36779;52.168;20.878;2023-09-18T00:16:25;5.90;;;2.90;;
50681;SDS011;36779;52.168;20.878;2023-09-18T00:19:02;6.50;;;3.30;;
50681;SDS011;36779;52.168;20.878;2023-09-18T00:21:35;4.10;;;3.20;;
50681;SDS011;36779;52.168;20.878;2023-09-18T00:24:08;6.40;;;3.40;;
50681;SDS011;36779;52.168;20.878;2023-09-18T00:26:44;5.40;;;3.50;;
50681;SDS011;36779;52.168;20.878;2023-09-18T00:29:18;5.00;;;3.40;;
50681;SDS011;36779;52.168;20.878;2023-09-18T00:31:51;5.50;;;3.30;;
50681;SDS011;36779;52.168;20.878;2023-09-18T00:34:23;4.90;;;3.40;;
50681;SDS011;36779;52.168;20.878;2023-09-18T00:36:55;4.70;;;3.30;;
50681;SDS011;36779;52.168;20.878;2023-09-18T00:39:28;5.10;;;3.50;;
50681;SDS011;36779;52.168;20.878;2023-09-18T00:42:00;5.10;;;3.50;;
50681;SDS011;36779;52.168;20.878;2023-09-18T00:44:33;4.40;;;3.70;;
50681;SDS011;36779;52.168;20.878;2023-09-18T00:47:05;7.60;;;3.50;;
50681;SDS011;36779;52.168;20.878;2023-09-18T00:49:39;6.00;;;3.30;;
50681;SDS011;36779;52.168;20.878;2023-09-18T00:52:13;4.90;;;3.90;;
50681;SDS011;36779;52.168;20.878;2023-09-18T00:54:47;5.40;;;3.60;;
50681;SDS011;36779;52.168;20.878;2023-09-18T00:57:23;5.50;;;3.30;;
50681;SDS011;36779;52.168;20.878;2023-09-18T00:59:55;5.70;;;3.70;;
50681;SDS011;36779;52.168;20.878;2023-09-18T01:02:30;5.80;;;3.80;;
50681;SDS011;36779;52.168;20.878;2023-09-18T01:05:03;5.50;;;3.80;;
50681;SDS011;36779;52.168;20.878;2023-09-18T01:07:36;6.40;;;4.40;;
50681;SDS011;36779;52.168;20.878;2023-09-18T01:10:09;5.20;;;3.90;;
50681;SDS011;36779;52.168;20.878;2023-09-18T01:12:46;5.50;;;3.60;;
50681;SDS011;36779;52.168;20.878;2023-09-18T01:17:57;7.20;;;4.00;;
50681;SDS011;36779;52.168;20.878;2023-09-18T01:20:30;6.10;;;4.10;;
50681;SDS011;36779;52.168;20.878;2023-09-18T01:23:05;7.90;;;4.00;;
50681;SDS011;36779;52.168;20.878;2023-09-18T01:25:38;8.10;;;4.10;;
50681;SDS011;36779;52.168;20.878;2023-09-18T01:28:10;8.10;;;4.40;;
50681;SDS011;36779;52.168;20.878;2023-09-18T01:30:46;7.10;;;4.20;;
50681;SDS011;36779;52.168;20.878;2023-09-18T01:33:19;6.50;;;4.20;;
50681;SDS011;36779;52.168;20.878;2023-09-18T01:35:57;7.50;;;4.40;;
50681;SDS011;36779;52.168;20.878;2023-09-18T01:38:31;6.40;;;4.10;;
50681;SDS011;36779;52.168;20.878;2023-09-18T01:41:06;8.40;;;5.10;;
50681;SDS011;36779;52.168;20.878;2023-09-18T01:43:39;7.00;;;4.50;;
50681;SDS011;36779;52.168;20.878;2023-09-18T01:46:11;9.40;;;4.10;;
50681;SDS011;36779;52.168;20.878;2023-09-18T01:48:46;8.90;;;4.60;;
50681;SDS011;36779;52.168;20.878;2023-09-18T01:51:20;8.10;;;5.10;;
50681;SDS011;36779;52.168;20.878;2023-09-18T01:53:54;6.80;;;4.80;;
50681;SDS011;36779;52.168;20.878;2023-09-18T01:56:27;8.40;;;5.00;;
50681;SDS011;36779;52.168;20.878;2023-09-18T01:58:59;10.10;;;5.50;;
50681;SDS011;36779;52.168;20.878;2023-09-18T02:01:32;9.30;;;5.40;;
50681;SDS011;36779;52.168;20.878;2023-09-18T02:04:07;9.30;;;5.80;;
50681;SDS011;36779;52.168;20.878;2023-09-18T02:06:59;9.30;;;5.60;;
50681;SDS011;36779;52.168;20.878;2023-09-18T02:09:32;9.40;;;6.10;;
50681;SDS011;36779;52.168;20.878;2023-09-18T02:12:04;8.60;;;5.40;;
50681;SDS011;36779;52.168;20.878;2023-09-18T02:14:39;11.90;;;6.20;;
50681;SDS011;36779;52.168;20.878;2023-09-18T02:17:12;11.40;;;5.90;;
50681;SDS011;36779;52.168;20.878;2023-09-18T02:19:45;9.10;;;5.80;;
50681;SDS011;36779;52.168;20.878;2023-09-18T02:22:17;8.80;;;5.50;;
50681;SDS011;36779;52.168;20.878;2023-09-18T02:24:49;7.70;;;5.30;;
50681;SDS011;36779;52.168;20.878;2023-09-18T02:27:26;9.80;;;5.70;;
50681;SDS011;36779;52.168;20.878;2023-09-18T02:29:59;10.50;;;6.60;;
50681;SDS011;36779;52.168;20.878;2023-09-18T02:32:31;12.50;;;5.90;;
50681;SDS011;36779;52.168;20.878;2023-09-18T02:35:05;8.10;;;5.50;;
50681;SDS011;36779;52.168;20.878;2023-09-18T02:37:41;11.20;;;6.50;;
50681;SDS011;36779;52.168;20.878;2023-09-18T02:40:14;9.40;;;5.90;;
50681;SDS011;36779;52.168;20.878;2023-09-18T02:42:47;10.50;;;6.10;;
50681;SDS011;36779;52.168;20.878;2023-09-18T02:45:22;10.60;;;6.10;;
50681;SDS011;36779;52.168;20.878;2023-09-18T02:47:55;9.30;;;6.10;;
50681;SDS011;36779;52.168;20.878;2023-09-18T02:50:27;11.00;;;6.00;;
50681;SDS011;36779;52.168;20.878;2023-09-18T02:52:59;10.30;;;5.80;;
50681;SDS011;36779;52.168;20.878;2023-09-18T02:55:32;7.70;;;5.70;;
50681;SDS011;36779;52.168;20.878;2023-09-18T02:58:05;11.30;;;6.80;;
50681;SDS011;36779;52.168;20.878;2023-09-18T03:00:42;10.80;;;6.90;;
50681;SDS011;36779;52.168;20.878;2023-09-18T03:03:17;7.80;;;5.80;;
50681;SDS011;36779;52.168;20.878;2023-09-18T03:05:50;12.10;;;6.40;;
50681;SDS011;36779;52.168;20.878;2023-09-18T03:08:22;9.50;;;5.90;;
50681;SDS011;36779;52.168;20.878;2023-09-18T03:10:54;10.40;;;5.70;;
50681;SDS011;36779;52.168;20.878;2023-09-18T03:13:27;8.30;;;6.20;;
50681;SDS011;36779;52.168;20.878;2023-09-18T03:16:01;9.60;;;6.60;;
50681;SDS011;36779;52.168;20.878;2023-09-18T03:18:33;8.80;;;5.90;;
50681;SDS011;36779;52.168;20.878;2023-09-18T03:21:09;9.10;;;6.00;;
50681;SDS011;36779;52.168;20.878;2023-09-18T03:23:41;12.50;;;6.50;;
50681;SDS011;36779;52.168;20.878;2023-09-18T03:26:13;9.70;;;7.00;;
50681;SDS011;36779;52.168;20.878;2023-09-18T03:28:48;10.70;;;5.80;;
50681;SDS011;36779;52.168;20.878;2023-09-18T03:31:21;10.00;;;6.40;;
50681;SDS011;36779;52.168;20.878;2023-09-18T03:33:53;10.30;;;6.10;;
50681;SDS011;36779;52.168;20.878;2023-09-18T03:36:25;10.50;;;6.40;;
50681;SDS011;36779;52.168;20.878;2023-09-18T03:38:58;9.80;;;6.50;;
50681;SDS011;36779;52.168;20.878;2023-09-18T03:41:30;11.90;;;6.90;;
50681;SDS011;36779;52.168;20.878;2023-09-18T03:44:04;9.70;;;6.40;;
50681;SDS011;36779;52.168;20.878;2023-09-18T03:46:37;10.60;;;6.30;;
50681;SDS011;36779;52.168;20.878;2023-09-18T03:49:10;12.60;;;6.80;;
50681;SDS011;36779;52.168;20.878;2023-09-18T03:51:43;9.50;;;5.90;;
50681;SDS011;36779;52.168;20.878;2023-09-18T03:54:15;9.00;;;6.30;;
50681;SDS011;36779;52.168;20.878;2023-09-18T03:56:48;13.90;;;7.30;;
50681;SDS011;36779;52.168;20.878;2023-09-18T03:59:20;12.30;;;6.80;;
50681;SDS011;36779;52.168;20.878;2023-09-18T04:01:52;11.50;;;7.00;;
50681;SDS011;36779;52.168;20.878;2023-09-18T04:04:25;9.90;;;6.80;;
50681;SDS011;36779;52.168;20.878;2023-09-18T04:06:57;13.00;;;6.70;;
50681;SDS011;36779;52.168;20.878;2023-09-18T04:09:30;11.60;;;6.60;;
50681;SDS011;36779;52.168;20.878;2023-09-18T04:12:04;10.00;;;6.30;;
50681;SDS011;36779;52.168;20.878;2023-09-18T04:14:37;9.00;;;6.20;;
50681;SDS011;36779;52.168;20.878;2023-09-18T04:17:10;10.60;;;6.20;;
50681;SDS011;36779;52.168;20.878;2023-09-18T04:19:45;9.00;;;6.10;;
50681;SDS011;36779;52.168;20.878;2023-09-18T04:22:18;9.50;;;6.70;;
50681;SDS011;36779;52.168;20.878;2023-09-18T04:24:50;12.10;;;6.90;;
50681;SDS011;36779;52.168;20.878;2023-09-18T04:27:22;9.70;;;6.50;;
50681;SDS011;36779;52.168;20.878;2023-09-18T04:29:54;10.20;;;6.70;;
50681;SDS011;36779;52.168;20.878;2023-09-18T04:32:28;12.70;;;6.30;;
50681;SDS011;36779;52.168;20.878;2023-09-18T04:35:01;10.90;;;7.50;;
50681;SDS011;36779;52.168;20.878;2023-09-18T04:37:36;11.90;;;6.90;;
50681;SDS011;36779;52.168;20.878;2023-09-18T04:40:10;11.30;;;6.60;;
50681;SDS011;36779;52.168;20.878;2023-09-18T04:42:46;10.80;;;5.80;;
50681;SDS011;36779;52.168;20.878;2023-09-18T04:45:20;14.40;;;6.70;;
50681;SDS011;36779;52.168;20.878;2023-09-18T04:47:55;11.80;;;7.40;;
50681;SDS011;36779;52.168;20.878;2023-09-18T04:50:28;9.50;;;6.70;;
50681;SDS011;36779;52.168;20.878;2023-09-18T04:53:01;10.50;;;6.60;;
50681;SDS011;36779;52.168;20.878;2023-09-18T04:55:34;11.20;;;7.10;;
50681;SDS011;36779;52.168;20.878;2023-09-18T04:58:08;15.70;;;11.30;;
50681;SDS011;36779;52.168;20.878;2023-09-18T05:00:40;12.40;;;9.30;;
50681;SDS011;36779;52.168;20.878;2023-09-18T05:03:13;13.00;;;8.20;;
50681;SDS011;36779;52.168;20.878;2023-09-18T05:05:46;11.80;;;7.40;;
50681;SDS011;36779;52.168;20.878;2023-09-18T05:08:19;12.20;;;6.90;;
50681;SDS011;36779;52.168;20.878;2023-09-18T05:10:52;11.40;;;7.70;;
50681;SDS011;36779;52.168;20.878;2023-09-18T05:13:24;9.50;;;6.70;;
50681;SDS011;36779;52.168;20.878;2023-09-18T05:15:56;9.80;;;6.70;;
50681;SDS011;36779;52.168;20.878;2023-09-18T05:18:30;12.40;;;6.60;;
50681;SDS011;36779;52.168;20.878;2023-09-18T05:21:02;9.60;;;7.00;;
50681;SDS011;36779;52.168;20.878;2023-09-18T05:23:36;9.20;;;6.70;;
50681;SDS011;36779;52.168;20.878;2023-09-18T05:26:08;13.00;;;7.60;;
50681;SDS011;36779;52.168;20.878;2023-09-18T05:28:40;10.80;;;7.10;;
50681;SDS011;36779;52.168;20.878;2023-09-18T05:31:12;10.90;;;7.80;;
50681;SDS011;36779;52.168;20.878;2023-09-18T05:33:45;11.40;;;8.00;;
50681;SDS011;36779;52.168;20.878;2023-09-18T05:36:18;12.20;;;8.60;;
50681;SDS011;36779;52.168;20.878;2023-09-18T05:38:50;19.40;;;12.30;;
50681;SDS011;36779;52.168;20.878;2023-09-18T05:41:23;12.80;;;9.70;;
50681;SDS011;36779;52.168;20.878;2023-09-18T05:43:58;13.40;;;8.00;;
50681;SDS011;36779;52.168;20.878;2023-09-18T05:46:34;14.50;;;9.70;;
50681;SDS011;36779;52.168;20.878;2023-09-18T05:49:09;20.30;;;13.30;;
50681;SDS011;36779;52.168;20.878;2023-09-18T05:51:42;21.30;;;11.00;;
50681;SDS011;36779;52.168;20.878;2023-09-18T05:54:14;13.00;;;8.20;;
50681;SDS011;36779;52.168;20.878;2023-09-18T05:56:47;13.30;;;7.90;;
50681;SDS011;36779;52.168;20.878;2023-09-18T05:59:19;11.70;;;7.60;;
50681;SDS011;36779;52.168;20.878;2023-09-18T06:01:51;11.70;;;8.20;;
50681;SDS011;36779;52.168;20.878;2023-09-18T06:04:24;13.50;;;7.80;;
50681;SDS011;36779;52.168;20.878;2023-09-18T06:06:56;11.10;;;6.60;;
50681;SDS011;36779;52.168;20.878;2023-09-18T06:09:30;14.20;;;8.10;;
50681;SDS011;36779;52.168;20.878;2023-09-18T06:12:02;16.40;;;8.50;;
50681;SDS011;36779;52.168;20.878;2023-09-18T06:14:35;13.10;;;8.30;;
50681;SDS011;36779;52.168;20.878;2023-09-18T06:17:07;15.30;;;8.40;;
50681;SDS011;36779;52.168;20.878;2023-09-18T06:19:40;14.90;;;8.20;;
50681;SDS011;36779;52.168;20.878;2023-09-18T06:22:12;11.40;;;7.70;;
50681;SDS011;36779;52.168;20.878;2023-09-18T06:24:47;12.90;;;8.00;;
50681;SDS011;36779;52.168;20.878;2023-09-18T06:27:20;12.60;;;8.70;;
50681;SDS011;36779;52.168;20.878;2023-09-18T06:29:52;11.10;;;8.30;;
50681;SDS011;36779;52.168;20.878;2023-09-18T06:32:24;14.20;;;9.50;;
50681;SDS011;36779;52.168;20.878;2023-09-18T06:34:56;13.20;;;10.20;;
50681;SDS011;36779;52.168;20.878;2023-09-18T06:37:29;12.90;;;10.30;;
50681;SDS011;36779;52.168;20.878;2023-09-18T06:40:01;11.30;;;10.00;;
50681;SDS011;36779;52.168;20.878;2023-09-18T06:42:35;11.00;;;9.90;;
50681;SDS011;36779;52.168;20.878;2023-09-18T06:45:07;11.20;;;9.60;;
50681;SDS011;36779;52.168;20.878;2023-09-18T06:47:40;10.60;;;9.50;;
50681;SDS011;36779;52.168;20.878;2023-09-18T06:50:13;12.00;;;8.90;;
50681;SDS011;36779;52.168;20.878;2023-09-18T06:52:45;10.80;;;9.70;;
50681;SDS011;36779;52.168;20.878;2023-09-18T06:55:21;11.10;;;9.50;;
50681;SDS011;36779;52.168;20.878;2023-09-18T06:57:55;10.90;;;9.50;;
50681;SDS011;36779;52.168;20.878;2023-09-18T07:00:28;11.20;;;10.00;;
50681;SDS011;36779;52.168;20.878;2023-09-18T07:03:00;10.60;;;9.60;;
50681;SDS011;36779;52.168;20.878;2023-09-18T07:05:33;11.70;;;10.50;;
50681;SDS011;36779;52.168;20.878;2023-09-18T07:08:06;11.20;;;9.80;;
50681;SDS011;36779;52.168;20.878;2023-09-18T07:10:41;11.50;;;9.60;;
50681;SDS011;36779;52.168;20.878;2023-09-18T07:13:13;10.60;;;8.90;;
50681;SDS011;36779;52.168;20.878;2023-09-18T07:15:47;10.10;;;9.10;;
50681;SDS011;36779;52.168;20.878;2023-09-18T07:18:19;10.20;;;8.90;;
50681;SDS011;36779;52.168;20.878;2023-09-18T07:20:52;9.70;;;8.50;;
50681;SDS011;36779;52.168;20.878;2023-09-18T07:23:25;10.00;;;8.60;;
50681;SDS011;36779;52.168;20.878;2023-09-18T07:25:57;10.20;;;8.90;;
50681;SDS011;36779;52.168;20.878;2023-09-18T07:28:29;11.20;;;9.30;;
50681;SDS011;36779;52.168;20.878;2023-09-18T07:31:05;11.60;;;9.70;;
50681;SDS011;36779;52.168;20.878;2023-09-18T07:33:41;11.20;;;9.00;;
50681;SDS011;36779;52.168;20.878;2023-09-18T07:36:14;10.90;;;9.50;;
50681;SDS011;36779;52.168;20.878;2023-09-18T07:38:47;11.10;;;8.60;;
50681;SDS011;36779;52.168;20.878;2023-09-18T07:41:20;12.40;;;9.50;;
50681;SDS011;36779;52.168;20.878;2023-09-18T07:43:52;11.90;;;8.80;;
50681;SDS011;36779;52.168;20.878;2023-09-18T07:46:26;15.20;;;9.30;;
50681;SDS011;36779;52.168;20.878;2023-09-18T07:49:05;11.60;;;9.60;;
50681;SDS011;36779;52.168;20.878;2023-09-18T07:51:37;10.10;;;9.10;;
50681;SDS011;36779;52.168;20.878;2023-09-18T07:54:09;10.00;;;9.10;;
50681;SDS011;36779;52.168;20.878;2023-09-18T07:56:44;11.30;;;8.70;;
50681;SDS011;36779;52.168;20.878;2023-09-18T07:59:17;10.20;;;9.20;;
50681;SDS011;36779;52.168;20.878;2023-09-18T08:01:50;9.90;;;9.00;;
50681;SDS011;36779;52.168;20.878;2023-09-18T08:04:23;11.20;;;10.10;;
50681;SDS011;36779;52.168;20.878;2023-09-18T08:06:55;9.70;;;8.70;;
50681;SDS011;36779;52.168;20.878;2023-09-18T08:09:29;10.20;;;9.20;;
50681;SDS011;36779;52.168;20.878;2023-09-18T08:12:03;11.00;;;9.80;;
50681;SDS011;36779;52.168;20.878;2023-09-18T08:14:38;10.10;;;8.70;;
50681;SDS011;36779;52.168;20.878;2023-09-18T08:17:11;10.30;;;9.00;;
50681;SDS011;36779;52.168;20.878;2023-09-18T08:19:43;9.20;;;8.30;;
50681;SDS011;36779;52.168;20.878;2023-09-18T08:22:15;9.50;;;8.50;;
50681;SDS011;36779;52.168;20.878;2023-09-18T08:24:50;9.30;;;8.30;;
50681;SDS011;36779;52.168;20.878;2023-09-18T08:27:24;8.50;;;7.50;;
50681;SDS011;36779;52.168;20.878;2023-09-18T08:29:56;9.20;;;8.20;;
50681;SDS011;36779;52.168;20.878;2023-09-18T08:32:28;11.00;;;8.20;;
50681;SDS011;36779;52.168;20.878;2023-09-18T08:35:05;10.00;;;8.30;;
50681;SDS011;36779;52.168;20.878;2023-09-18T08:37:39;9.00;;;8.20;;
50681;SDS011;36779;52.168;20.878;2023-09-18T08:40:12;9.60;;;8.10;;
50681;SDS011;36779;52.168;20.878;2023-09-18T08:42:46;9.30;;;8.10;;
50681;SDS011;36779;52.168;20.878;2023-09-18T08:45:23;8.80;;;8.00;;
50681;SDS011;36779;52.168;20.878;2023-09-18T08:48:04;9.50;;;8.40;;
50681;SDS011;36779;52.168;20.878;2023-09-18T08:50:38;9.30;;;8.00;;
50681;SDS011;36779;52.168;20.878;2023-09-18T08:53:12;8.80;;;8.00;;
50681;SDS011;36779;52.168;20.878;2023-09-18T08:55:47;7.90;;;7.20;;
50681;SDS011;36779;52.168;20.878;2023-09-18T08:58:19;8.70;;;7.60;;
50681;SDS011;36779;52.168;20.878;2023-09-18T09:00:51;7.80;;;7.10;;
50681;SDS011;36779;52.168;20.878;2023-09-18T09:03:24;7.70;;;6.80;;
50681;SDS011;36779;52.168;20.878;2023-09-18T09:05:58;9.80;;;7.00;;
50681;SDS011;36779;52.168;20.878;2023-09-18T09:08:36;7.50;;;6.80;;
50681;SDS011;36779;52.168;20.878;2023-09-18T09:11:09;7.00;;;6.40;;
50681;SDS011;36779;52.168;20.878;2023-09-18T09:13:42;7.30;;;6.60;;
50681;SDS011;36779;52.168;20.878;2023-09-18T09:16:15;7.90;;;6.40;;
50681;SDS011;36779;52.168;20.878;2023-09-18T09:18:50;6.70;;;5.90;;
50681;SDS011;36779;52.168;20.878;2023-09-18T09:21:23;6.10;;;5.40;;
50681;SDS011;36779;52.168;20.878;2023-09-18T09:24:08;5.50;;;5.00;;
50681;SDS011;36779;52.168;20.878;2023-09-18T09:26:43;10.80;;;7.00;;
50681;SDS011;36779;52.168;20.878;2023-09-18T09:29:27;7.10;;;6.40;;
50681;SDS011;36779;52.168;20.878;2023-09-18T09:32:13;6.80;;;6.20;;
50681;SDS011;36779;52.168;20.878;2023-09-18T09:34:47;7.80;;;5.70;;
50681;SDS011;36779;52.168;20.878;2023-09-18T09:37:20;7.00;;;6.40;;
50681;SDS011;36779;52.168;20.878;2023-09-18T09:40:03;6.60;;;6.00;;
50681;SDS011;36779;52.168;20.878;2023-09-18T09:42:39;5.70;;;5.10;;
50681;SDS011;36779;52.168;20.878;2023-09-18T09:45:12;9.50;;;5.20;;
50681;SDS011;36779;52.168;20.878;2023-09-18T09:47:48;4.90;;;4.50;;
50681;SDS011;36779;52.168;20.878;2023-09-18T09:50:24;8.10;;;4.60;;
50681;SDS011;36779;52.168;20.878;2023-09-18T09:52:58;6.10;;;5.30;;
50681;SDS011;36779;52.168;20.878;2023-09-18T09:55:33;6.30;;;4.50;;
50681;SDS011;36779;52.168;20.878;2023-09-18T09:58:08;5.60;;;4.60;;
50681;SDS011;36779;52.168;20.878;2023-09-18T10:00:45;5.30;;;4.80;;
50681;SDS011;36779;52.168;20.878;2023-09-18T10:03:20;5.50;;;4.60;;
50681;SDS011;36779;52.168;20.878;2023-09-18T10:05:52;5.80;;;5.30;;
50681;SDS011;36779;52.168;20.878;2023-09-18T10:08:26;5.50;;;4.70;;
50681;SDS011;36779;52.168;20.878;2023-09-18T10:11:00;5.40;;;4.90;;
50681;SDS011;36779;52.168;20.878;2023-09-18T10:16:12;6.40;;;4.90;;
50681;SDS011;36779;52.168;20.878;2023-09-18T10:18:53;5.90;;;4.50;;
50681;SDS011;36779;52.168;20.878;2023-09-18T10:21:38;6.20;;;4.80;;
50681;SDS011;36779;52.168;20.878;2023-09-18T10:24:19;6.40;;;4.70;;
50681;SDS011;36779;52.168;20.878;2023-09-18T10:26:55;5.10;;;4.60;;
50681;SDS011;36779;52.168;20.878;2023-09-18T10:29:30;6.90;;;5.00;;
50681;SDS011;36779;52.168;20.878;2023-09-18T10:32:04;7.80;;;4.80;;
50681;SDS011;36779;52.168;20.878;2023-09-18T10:34:37;7.70;;;5.40;;
50681;SDS011;36779;52.168;20.878;2023-09-18T10:37:12;5.20;;;4.70;;
50681;SDS011;36779;52.168;20.878;2023-09-18T10:39:47;5.30;;;4.80;;
50681;SDS011;36779;52.168;20.878;2023-09-18T10:42:23;5.80;;;5.10;;
50681;SDS011;36779;52.168;20.878;2023-09-18T10:44:57;5.00;;;4.60;;
50681;SDS011;36779;52.168;20.878;2023-09-18T10:47:29;6.30;;;5.00;;
50681;SDS011;36779;52.168;20.878;2023-09-18T10:50:03;5.60;;;4.40;;
50681;SDS011;36779;52.168;20.878;2023-09-18T10:52:36;5.40;;;4.90;;
50681;SDS011;36779;52.168;20.878;2023-09-18T10:55:13;5.30;;;4.80;;
50681;SDS011;36779;52.168;20.878;2023-09-18T10:57:52;5.50;;;4.70;;
50681;SDS011;36779;52.168;20.878;2023-09-18T11:00:26;6.50;;;4.50;;
50681;SDS011;36779;52.168;20.878;2023-09-18T11:03:15;5.30;;;4.80;;
50681;SDS011;36779;52.168;20.878;2023-09-18T11:06:01;6.30;;;5.10;;
50681;SDS011;36779;52.168;20.878;2023-09-18T11:08:42;5.90;;;4.90;;
50681;SDS011;36779;52.168;20.878;2023-09-18T11:11:17;5.70;;;4.70;;
50681;SDS011;36779;52.168;20.878;2023-09-18T11:13:51;5.80;;;5.30;;
50681;SDS011;36779;52.168;20.878;2023-09-18T11:16:39;5.70;;;5.10;;
50681;SDS011;36779;52.168;20.878;2023-09-18T11:19:16;5.80;;;5.30;;
50681;SDS011;36779;52.168;20.878;2023-09-18T11:21:49;7.50;;;5.60;;
50681;SDS011;36779;52.168;20.878;2023-09-18T11:24:39;6.70;;;5.30;;
50681;SDS011;36779;52.168;20.878;2023-09-18T11:27:11;5.80;;;5.30;;
50681;SDS011;36779;52.168;20.878;2023-09-18T11:29:44;6.30;;;5.70;;
50681;SDS011;36779;52.168;20.878;2023-09-18T11:32:18;6.70;;;5.90;;
50681;SDS011;36779;52.168;20.878;2023-09-18T11:35:10;9.20;;;5.80;;
50681;SDS011;36779;52.168;20.878;2023-09-18T11:37:47;7.30;;;6.00;;
50681;SDS011;36779;52.168;20.878;2023-09-18T11:40:36;7.60;;;5.50;;
50681;SDS011;36779;52.168;20.878;2023-09-18T11:43:24;7.40;;;6.10;;
50681;SDS011;36779;52.168;20.878;2023-09-18T11:45:59;7.60;;;5.10;;
50681;SDS011;36779;52.168;20.878;2023-09-18T11:48:33;6.20;;;5.70;;
50681;SDS011;36779;52.168;20.878;2023-09-18T11:51:07;7.60;;;6.30;;
50681;SDS011;36779;52.168;20.878;2023-09-18T11:53:41;7.00;;;6.40;;
50681;SDS011;36779;52.168;20.878;2023-09-18T11:56:14;7.30;;;6.60;;
50681;SDS011;36779;52.168;20.878;2023-09-18T11:58:48;7.60;;;7.00;;
50681;SDS011;36779;52.168;20.878;2023-09-18T12:01:24;6.60;;;6.00;;
50681;SDS011;36779;52.168;20.878;2023-09-18T12:04:01;8.00;;;7.20;;
50681;SDS011;36779;52.168;20.878;2023-09-18T12:06:38;7.10;;;6.50;;
50681;SDS011;36779;52.168;20.878;2023-09-18T12:09:11;7.80;;;6.40;;
50681;SDS011;36779;52.168;20.878;2023-09-18T12:11:44;7.60;;;6.90;;
50681;SDS011;36779;52.168;20.878;2023-09-18T12:14:19;7.60;;;6.90;;
50681;SDS011;36779;52.168;20.878;2023-09-18T12:16:52;10.20;;;7.80;;
50681;SDS011;36779;52.168;20.878;2023-09-18T12:19:25;8.70;;;7.60;;
50681;SDS011;36779;52.168;20.878;2023-09-18T12:21:57;8.00;;;7.30;;
50681;SDS011;36779;52.168;20.878;2023-09-18T12:24:30;7.90;;;7.30;;
50681;SDS011;36779;52.168;20.878;2023-09-18T12:27:03;8.10;;;7.30;;
50681;SDS011;36779;52.168;20.878;2023-09-18T12:29:36;8.00;;;7.20;;
50681;SDS011;36779;52.168;20.878;2023-09-18T12:32:10;8.60;;;7.80;;
50681;SDS011;36779;52.168;20.878;2023-09-18T12:34:44;9.00;;;7.40;;
50681;SDS011;36779;52.168;20.878;2023-09-18T12:37:16;8.30;;;7.60;;
50681;SDS011;36779;52.168;20.878;2023-09-18T12:39:49;7.40;;;6.90;;
50681;SDS011;36779;52.168;20.878;2023-09-18T12:42:21;7.50;;;6.80;;
50681;SDS011;36779;52.168;20.878;2023-09-18T12:44:56;9.40;;;7.20;;
50681;SDS011;36779;52.168;20.878;2023-09-18T12:47:29;10.10;;;6.60;;
50681;SDS011;36779;52.168;20.878;2023-09-18T12:50:03;7.90;;;7.10;;
50681;SDS011;36779;52.168;20.878;2023-09-18T12:52:37;7.30;;;6.70;;
50681;SDS011;36779;52.168;20.878;2023-09-18T12:55:09;7.90;;;7.10;;
50681;SDS011;36779;52.168;20.878;2023-09-18T12:57:53;9.70;;;7.10;;
50681;SDS011;36779;52.168;20.878;2023-09-18T13:00:26;8.10;;;7.00;;
50681;SDS011;36779;52.168;20.878;2023-09-18T13:02:59;9.20;;;7.30;;
50681;SDS011;36779;52.168;20.878;2023-09-18T13:05:34;8.40;;;7.70;;
50681;SDS011;36779;52.168;20.878;2023-09-18T13:08:06;9.00;;;7.30;;
50681;SDS011;36779;52.168;20.878;2023-09-18T13:10:45;21.70;;;10.30;;
50681;SDS011;36779;52.168;20.878;2023-09-18T13:13:19;24.20;;;9.60;;
50681;SDS011;36779;52.168;20.878;2023-09-18T13:15:52;14.60;;;8.80;;
50681;SDS011;36779;52.168;20.878;2023-09-18T13:18:30;9.30;;;8.20;;
50681;SDS011;36779;52.168;20.878;2023-09-18T13:21:10;10.50;;;7.90;;
50681;SDS011;36779;52.168;20.878;2023-09-18T13:23:46;8.80;;;7.90;;
50681;SDS011;36779;52.168;20.878;2023-09-18T13:26:20;11.00;;;8.10;;
50681;SDS011;36779;52.168;20.878;2023-09-18T13:28:52;15.40;;;8.70;;
50681;SDS011;36779;52.168;20.878;2023-09-18T13:31:26;10.70;;;8.00;;
50681;SDS011;36779;52.168;20.878;2023-09-18T13:34:06;12.60;;;8.60;;
50681;SDS011;36779;52.168;20.878;2023-09-18T13:36:40;8.60;;;7.80;;
50681;SDS011;36779;52.168;20.878;2023-09-18T13:39:23;8.60;;;7.70;;
50681;SDS011;36779;52.168;20.878;2023-09-18T13:41:56;8.80;;;7.80;;
50681;SDS011;36779;52.168;20.878;2023-09-18T13:44:28;9.30;;;8.40;;
50681;SDS011;36779;52.168;20.878;2023-09-18T13:47:00;9.10;;;8.20;;
50681;SDS011;36779;52.168;20.878;2023-09-18T13:49:33;8.40;;;7.60;;
50681;SDS011;36779;52.168;20.878;2023-09-18T13:52:05;8.80;;;8.00;;
50681;SDS011;36779;52.168;20.878;2023-09-18T13:54:38;8.90;;;8.10;;
50681;SDS011;36779;52.168;20.878;2023-09-18T13:57:10;19.60;;;11.30;;
50681;SDS011;36779;52.168;20.878;2023-09-18T13:59:42;28.70;;;12.70;;
50681;SDS011;36779;52.168;20.878;2023-09-18T14:02:15;10.60;;;8.40;;
50681;SDS011;36779;52.168;20.878;2023-09-18T14:04:55;24.30;;;12.20;;
50681;SDS011;36779;52.168;20.878;2023-09-18T14:07:28;16.90;;;10.40;;
50681;SDS011;36779;52.168;20.878;2023-09-18T14:10:00;23.60;;;12.30;;
50681;SDS011;36779;52.168;20.878;2023-09-18T14:12:33;22.00;;;10.80;;
50681;SDS011;36779;52.168;20.878;2023-09-18T14:15:10;16.40;;;10.00;;
50681;SDS011;36779;52.168;20.878;2023-09-18T14:17:43;13.00;;;8.50;;
50681;SDS011;36779;52.168;20.878;2023-09-18T14:20:16;9.10;;;8.20;;
50681;SDS011;36779;52.168;20.878;2023-09-18T14:22:49;11.70;;;7.70;;
50681;SDS011;36779;52.168;20.878;2023-09-18T14:25:22;8.90;;;8.00;;
50681;SDS011;36779;52.168;20.878;2023-09-18T14:27:55;9.10;;;8.30;;
50681;SDS011;36779;52.168;20.878;2023-09-18T14:30:29;9.30;;;8.40;;
50681;SDS011;36779;52.168;20.878;2023-09-18T14:33:05;10.40;;;8.20;;
50681;SDS011;36779;52.168;20.878;2023-09-18T14:35:38;9.50;;;8.60;;
50681;SDS011;36779;52.168;20.878;2023-09-18T14:38:10;10.40;;;8.50;;
50681;SDS011;36779;52.168;20.878;2023-09-18T14:40:44;8.00;;;6.90;;
50681;SDS011;36779;52.168;20.878;2023-09-18T14:43:19;7.70;;;7.10;;
50681;SDS011;36779;52.168;20.878;2023-09-18T14:45:52;8.40;;;7.60;;
50681;SDS011;36779;52.168;20.878;2023-09-18T14:48:25;10.60;;;7.00;;
50681;SDS011;36779;52.168;20.878;2023-09-18T14:50:58;7.50;;;6.80;;
50681;SDS011;36779;52.168;20.878;2023-09-18T14:53:30;8.80;;;7.20;;
50681;SDS011;36779;52.168;20.878;2023-09-18T14:56:03;6.50;;;5.80;;
50681;SDS011;36779;52.168;20.878;2023-09-18T14:58:42;8.00;;;6.80;;
50681;SDS011;36779;52.168;20.878;2023-09-18T15:01:14;14.50;;;7.10;;
50681;SDS011;36779;52.168;20.878;2023-09-18T15:03:50;6.70;;;6.10;;
50681;SDS011;36779;52.168;20.878;2023-09-18T15:06:22;6.20;;;5.60;;
50681;SDS011;36779;52.168;20.878;2023-09-18T15:08:56;7.00;;;6.20;;
50681;SDS011;36779;52.168;20.878;2023-09-18T15:11:29;8.10;;;6.10;;
50681;SDS011;36779;52.168;20.878;2023-09-18T15:14:01;6.80;;;6.20;;